createdAt,value
2022-10-19T00:01:18.959Z,46.58
2022-10-19T00:06:30.053Z,44.63
2022-10-19T00:09:04.350Z,47.83
2022-10-19T00:11:34.242Z,48.50
2022-10-19T00:14:02.393Z,48.60
2022-10-19T00:16:33.475Z,53.95
2022-10-19T00:19:04.613Z,49.03
2022-10-19T00:21:32.600Z,43.95
2022-10-19T00:24:00.331Z,49.60
2022-10-19T00:26:28.113Z,53.08
2022-10-19T00:28:57.162Z,47.15
2022-10-19T00:31:25.338Z,45.55
2022-10-19T00:33:54.113Z,52.47
2022-10-19T00:36:38.098Z,53.92
2022-10-19T00:39:11.342Z,50.30
2022-10-19T00:41:40.036Z,48.33
2022-10-19T00:44:30.235Z,52.80
2022-10-19T00:47:05.398Z,46.97
2022-10-19T00:49:43.528Z,50.25
2022-10-19T00:52:15.641Z,50.90
2022-10-19T00:54:45.678Z,47.35
2022-10-19T00:57:14.442Z,40.67
2022-10-19T00:59:44.604Z,52.08
2022-10-19T01:02:13.245Z,58.63
2022-10-19T01:04:47.886Z,48.55
2022-10-19T01:07:16.336Z,48.90
2022-10-19T01:09:44.107Z,43.30
2022-10-19T01:12:11.872Z,47.97
2022-10-19T01:14:59.114Z,51.40
2022-10-19T01:17:38.617Z,44.70
2022-10-19T01:20:14.429Z,53.03
2022-10-19T01:23:03.163Z,49.10
2022-10-19T01:26:00.594Z,48.40
2022-10-19T01:28:38.259Z,43.72
2022-10-19T01:31:44.251Z,44.53
2022-10-19T01:34:35.195Z,51.22
2022-10-19T01:37:15.909Z,47.63
2022-10-19T01:40:15.413Z,51.72
2022-10-19T01:42:49.649Z,51.50
2022-10-19T01:45:19.524Z,47.13
2022-10-19T01:47:47.191Z,46.78
2022-10-19T01:50:31.740Z,51.05
2022-10-19T01:55:28.902Z,53.50
2022-10-19T01:58:08.231Z,49.00
2022-10-19T02:00:41.916Z,48.30
2022-10-19T02:03:10.758Z,55.97
2022-10-19T02:05:40.832Z,47.78
2022-10-19T02:08:16.215Z,51.22
2022-10-19T02:10:45.948Z,49.72
2022-10-19T02:13:16.630Z,43.83
2022-10-19T02:15:50.117Z,45.42
2022-10-19T02:18:25.451Z,47.90
2022-10-19T02:20:53.453Z,48.17
2022-10-19T02:23:24.284Z,43.75
2022-10-19T02:25:52.116Z,48.28
2022-10-19T02:28:20.656Z,52.28
2022-10-19T02:30:48.763Z,43.35
2022-10-19T02:33:17.013Z,45.30
2022-10-19T02:35:44.743Z,47.40
2022-10-19T02:38:17.130Z,45.65
2022-10-19T02:40:52.223Z,49.75
2022-10-19T02:43:23.290Z,43.55
2022-10-19T02:46:02.554Z,42.75
2022-10-19T02:48:33.498Z,50.13
2022-10-19T02:51:01.342Z,45.83
2022-10-19T02:53:29.030Z,46.17
2022-10-19T02:55:56.781Z,50.80
2022-10-19T02:58:24.631Z,45.63
2022-10-19T03:00:52.447Z,50.03
2022-10-19T03:03:20.213Z,50.00
2022-10-19T03:05:47.962Z,54.22
2022-10-19T03:08:15.768Z,52.90
2022-10-19T03:10:43.455Z,45.28
2022-10-19T03:13:11.187Z,51.72
2022-10-19T03:15:39.037Z,49.83
2022-10-19T03:18:06.879Z,50.28
2022-10-19T03:20:34.611Z,49.83
2022-10-19T03:23:02.332Z,48.85
2022-10-19T03:25:30.092Z,50.13
2022-10-19T03:27:57.881Z,54.97
2022-10-19T03:30:25.819Z,49.00
2022-10-19T03:32:53.572Z,56.92
2022-10-19T03:35:21.411Z,53.72
2022-10-19T03:37:49.196Z,51.20
2022-10-19T03:40:17.085Z,46.22
2022-10-19T03:42:44.942Z,44.97
2022-10-19T03:45:12.632Z,49.88
2022-10-19T03:47:40.480Z,47.80
2022-10-19T03:50:11.483Z,48.80
2022-10-19T03:52:39.172Z,44.60
2022-10-19T03:55:07.643Z,45.58
2022-10-19T03:57:35.627Z,54.85
2022-10-19T04:00:07.079Z,49.38
2022-10-19T04:02:39.759Z,53.65
2022-10-19T04:05:08.049Z,56.65
2022-10-19T04:07:36.117Z,50.88
2022-10-19T04:10:04.381Z,47.72
2022-10-19T04:12:32.183Z,45.83
2022-10-19T04:15:00.010Z,46.83
2022-10-19T04:17:27.774Z,54.05
2022-10-19T04:19:55.574Z,52.83
2022-10-19T04:22:23.294Z,53.63
2022-10-19T04:24:51.053Z,62.55
2022-10-19T04:27:18.854Z,53.03
2022-10-19T04:29:46.708Z,55.88
2022-10-19T04:32:14.427Z,49.15
2022-10-19T04:34:42.126Z,57.42
2022-10-19T04:37:10.008Z,53.80
2022-10-19T04:39:40.952Z,58.20
2022-10-19T04:42:08.605Z,50.55
2022-10-19T04:44:36.664Z,51.83
2022-10-19T04:47:04.363Z,52.47
2022-10-19T04:49:32.059Z,58.63
2022-10-19T04:51:59.708Z,51.25
2022-10-19T04:54:27.390Z,50.28
2022-10-19T04:56:55.166Z,54.15
2022-10-19T04:59:22.945Z,51.03
2022-10-19T05:01:50.711Z,53.08
2022-10-19T05:04:18.798Z,52.03
2022-10-19T05:06:46.589Z,53.60
2022-10-19T05:09:14.321Z,51.58
2022-10-19T05:11:42.177Z,56.92
2022-10-19T05:14:09.915Z,50.47
2022-10-19T05:16:37.932Z,54.25
2022-10-19T05:19:05.706Z,49.47
2022-10-19T05:21:33.644Z,51.65
2022-10-19T05:24:01.452Z,52.30
2022-10-19T05:26:30.323Z,46.53
2022-10-19T05:29:02.042Z,54.38
2022-10-19T05:31:32.182Z,54.35
2022-10-19T05:34:01.389Z,49.08
2022-10-19T05:36:35.081Z,54.42
2022-10-19T05:39:13.874Z,51.38
2022-10-19T05:41:44.576Z,51.38
2022-10-19T05:44:18.614Z,50.22
2022-10-19T05:49:16.212Z,48.78
2022-10-19T05:51:44.092Z,49.13
2022-10-19T05:54:13.132Z,50.50
2022-10-19T05:56:41.882Z,50.95
2022-10-19T05:59:14.152Z,50.08
2022-10-19T06:01:42.178Z,50.65
2022-10-19T06:04:10.968Z,53.58
2022-10-19T06:06:38.758Z,46.40
2022-10-19T06:09:06.541Z,44.55
2022-10-19T06:11:37.474Z,49.40
2022-10-19T06:14:08.621Z,51.20
2022-10-19T06:16:36.468Z,55.22
2022-10-19T06:19:05.508Z,41.25
2022-10-19T06:21:34.328Z,46.80
2022-10-19T06:24:04.990Z,47.15
2022-10-19T06:26:34.921Z,39.65
2022-10-19T06:29:03.885Z,40.35
2022-10-19T06:31:35.737Z,44.60
2022-10-19T06:34:03.710Z,44.70
2022-10-19T06:36:32.914Z,51.78
2022-10-19T06:39:02.020Z,42.17
2022-10-19T06:41:31.946Z,42.15
2022-10-19T06:44:14.843Z,49.25
2022-10-19T06:46:42.569Z,48.85
2022-10-19T06:49:14.320Z,43.90
2022-10-19T06:51:42.189Z,41.40
2022-10-19T06:54:10.004Z,42.20
2022-10-19T06:56:37.836Z,50.05
2022-10-19T06:59:05.649Z,51.08
2022-10-19T07:01:33.464Z,58.28
2022-10-19T07:04:01.352Z,46.60
2022-10-19T07:06:29.345Z,49.70
2022-10-19T07:08:57.178Z,47.65
2022-10-19T07:11:24.921Z,45.50
2022-10-19T07:13:53.524Z,53.38
2022-10-19T07:16:22.086Z,47.17
2022-10-19T07:18:52.211Z,53.35
2022-10-19T07:21:22.814Z,50.28
2022-10-19T07:23:50.754Z,43.40
2022-10-19T07:26:26.772Z,54.45
2022-10-19T07:28:57.294Z,50.25
2022-10-19T07:31:26.596Z,51.58
2022-10-19T07:33:59.787Z,50.50
2022-10-19T07:36:29.236Z,50.83
2022-10-19T07:38:57.304Z,51.40
2022-10-19T07:41:26.505Z,53.05
2022-10-19T07:43:54.742Z,55.15
2022-10-19T07:46:25.463Z,49.50
2022-10-19T07:48:54.001Z,55.30
2022-10-19T07:51:22.706Z,59.33
2022-10-19T07:53:50.649Z,56.15
2022-10-19T07:56:23.885Z,51.70
2022-10-19T07:58:53.887Z,54.27
2022-10-19T08:01:26.760Z,56.25
2022-10-19T08:06:44.121Z,55.25
2022-10-19T08:09:27.769Z,49.13
2022-10-19T08:11:59.929Z,58.67
2022-10-19T08:14:27.982Z,48.33
2022-10-19T08:16:55.699Z,50.65
2022-10-19T08:19:24.329Z,47.60
2022-10-19T08:21:52.126Z,50.75
2022-10-19T08:24:20.808Z,51.80
2022-10-19T08:26:51.352Z,51.67
2022-10-19T08:29:21.099Z,48.88
2022-10-19T08:31:49.624Z,45.63
2022-10-19T08:34:17.617Z,49.78
2022-10-19T08:36:45.429Z,54.10
2022-10-19T08:39:13.702Z,52.42
2022-10-19T08:41:41.526Z,48.83
2022-10-19T08:44:28.552Z,54.17
2022-10-19T08:47:05.222Z,44.28
2022-10-19T08:49:35.999Z,50.30
2022-10-19T08:52:32.037Z,49.03
2022-10-19T08:55:09.285Z,44.30
2022-10-19T08:57:53.903Z,46.75
2022-10-19T09:00:47.806Z,47.28
2022-10-19T09:03:55.132Z,45.47
2022-10-19T09:06:27.333Z,44.05
2022-10-19T09:08:57.141Z,43.83
2022-10-19T09:11:29.742Z,51.25
2022-10-19T09:14:13.297Z,45.70
2022-10-19T09:16:41.243Z,51.38
2022-10-19T09:19:30.110Z,47.70
2022-10-19T09:22:19.648Z,45.20
2022-10-19T09:24:50.835Z,49.45
2022-10-19T09:27:27.951Z,50.13
2022-10-19T09:30:03.855Z,43.38
2022-10-19T09:32:35.491Z,48.38
2022-10-19T09:35:05.785Z,41.63
2022-10-19T09:37:47.186Z,49.80
2022-10-19T09:40:25.059Z,47.75
2022-10-19T09:42:57.475Z,47.55
2022-10-19T09:45:46.475Z,44.67
2022-10-19T09:48:39.612Z,48.50
2022-10-19T09:51:16.550Z,44.58
2022-10-19T09:53:51.201Z,45.58
2022-10-19T09:56:27.401Z,42.75
2022-10-19T09:58:57.773Z,43.13
2022-10-19T10:01:43.783Z,51.58
2022-10-19T10:04:17.629Z,51.40
2022-10-19T10:06:48.499Z,48.38
2022-10-19T10:09:23.693Z,47.67
2022-10-19T10:14:34.201Z,44.55
2022-10-19T10:17:05.117Z,47.10
2022-10-19T10:19:36.166Z,46.60
2022-10-19T10:22:04.795Z,53.70
2022-10-19T10:24:34.396Z,45.35
2022-10-19T10:27:06.098Z,47.47
2022-10-19T10:29:39.354Z,46.35
2022-10-19T10:32:16.416Z,47.10
2022-10-19T10:34:53.825Z,42.85
2022-10-19T10:37:38.383Z,51.47
2022-10-19T10:40:19.853Z,44.80
2022-10-19T10:42:50.335Z,52.80
2022-10-19T10:45:24.114Z,51.75
2022-10-19T10:47:53.093Z,48.72
2022-10-19T10:50:35.911Z,51.40
2022-10-19T10:53:06.487Z,51.60
2022-10-19T10:55:34.945Z,49.00
2022-10-19T10:58:25.457Z,56.00
2022-10-19T11:00:56.824Z,52.20
2022-10-19T11:03:32.935Z,57.20
2022-10-19T11:06:03.005Z,54.33
2022-10-19T11:08:52.373Z,49.67
2022-10-19T11:11:25.896Z,53.95
2022-10-19T11:14:31.425Z,54.50
2022-10-19T11:17:05.988Z,52.38
2022-10-19T11:19:37.620Z,49.97
2022-10-19T11:22:14.255Z,50.72
2022-10-19T11:25:00.426Z,56.60
2022-10-19T11:27:34.674Z,52.58
2022-10-19T11:30:32.521Z,56.58
2022-10-19T11:33:36.030Z,49.45
2022-10-19T11:36:18.538Z,53.45
2022-10-19T11:39:16.105Z,59.00
2022-10-19T11:42:15.289Z,52.65
2022-10-19T11:45:10.019Z,48.83
2022-10-19T11:48:26.115Z,48.03
2022-10-19T11:51:20.754Z,41.30
2022-10-19T11:54:07.516Z,44.67
2022-10-19T11:57:04.034Z,47.78
2022-10-19T11:59:48.288Z,49.05
2022-10-19T12:03:04.162Z,44.35
2022-10-19T12:06:18.383Z,51.65
2022-10-19T12:09:04.413Z,55.73
2022-10-19T12:12:17.017Z,50.67
2022-10-19T12:14:48.454Z,46.17
2022-10-19T12:17:24.022Z,44.97
2022-10-19T12:19:56.066Z,51.58
2022-10-19T12:22:28.867Z,45.83
2022-10-19T12:25:00.434Z,44.78
2022-10-19T12:27:39.533Z,42.05
2022-10-19T12:30:27.775Z,47.03
2022-10-19T12:33:23.296Z,43.65
2022-10-19T12:36:20.744Z,42.97
2022-10-19T12:39:02.894Z,50.38
2022-10-19T12:41:44.708Z,46.95
2022-10-19T12:44:19.521Z,47.28
2022-10-19T12:46:53.806Z,49.38
2022-10-19T12:49:29.069Z,40.78
2022-10-19T12:51:59.226Z,47.53
2022-10-19T12:54:30.301Z,42.70
2022-10-19T12:57:00.738Z,43.10
2022-10-19T12:59:34.226Z,43.45
2022-10-19T13:02:05.754Z,46.90
2022-10-19T13:04:36.239Z,38.55
2022-10-19T13:07:10.991Z,37.13
2022-10-19T13:09:44.372Z,37.53
2022-10-19T13:12:19.374Z,32.33
2022-10-19T13:15:00.357Z,37.88
2022-10-19T13:17:35.028Z,37.72
2022-10-19T13:20:15.075Z,34.67
2022-10-19T13:23:09.697Z,40.22
2022-10-19T13:25:39.015Z,30.77
2022-10-19T13:28:06.776Z,35.08
2022-10-19T13:30:38.354Z,36.75
2022-10-19T13:33:33.378Z,36.38
2022-10-19T13:36:02.565Z,43.13
2022-10-19T13:38:53.345Z,37.05
2022-10-19T13:41:48.223Z,43.40
2022-10-19T13:44:25.126Z,34.58
2022-10-19T13:47:22.562Z,36.17
2022-10-19T13:50:22.715Z,33.20
2022-10-19T13:53:13.121Z,38.97
2022-10-19T13:56:01.959Z,45.03
2022-10-19T13:58:59.046Z,35.47
2022-10-19T14:01:46.022Z,34.78
2022-10-19T14:04:23.470Z,36.28
2022-10-19T14:06:51.495Z,36.85
2022-10-19T14:09:22.107Z,35.22
2022-10-19T14:11:54.551Z,34.38
2022-10-19T14:14:25.083Z,30.95
2022-10-19T14:17:04.411Z,33.28
2022-10-19T14:19:48.011Z,31.30
2022-10-19T14:22:27.551Z,36.15
2022-10-19T14:25:01.537Z,38.33
2022-10-19T14:29:59.538Z,33.35
2022-10-19T14:32:30.415Z,38.08
2022-10-19T14:37:43.964Z,36.00
2022-10-19T14:40:26.536Z,40.42
2022-10-19T14:43:01.404Z,35.90
2022-10-19T14:45:32.814Z,38.05
2022-10-19T14:48:04.153Z,36.03
2022-10-19T14:50:42.218Z,34.10
2022-10-19T14:53:36.705Z,34.13
2022-10-19T14:56:32.536Z,32.83
2022-10-19T14:59:20.231Z,34.45
2022-10-19T15:01:54.999Z,38.28
2022-10-19T15:04:26.743Z,32.55
2022-10-19T15:06:55.892Z,32.63
2022-10-19T15:09:37.016Z,42.22
2022-10-19T15:12:14.555Z,36.40
2022-10-19T15:14:43.004Z,40.92
2022-10-19T15:17:29.151Z,38.55
2022-10-19T15:20:01.125Z,40.50
2022-10-19T15:22:33.611Z,36.90
2022-10-19T15:25:08.208Z,39.05
2022-10-19T15:30:25.201Z,43.22
2022-10-19T15:33:02.069Z,37.30
2022-10-19T15:35:34.290Z,34.20
2022-10-19T15:38:23.368Z,39.28
2022-10-19T15:40:58.085Z,45.42
2022-10-19T15:43:34.492Z,38.20
2022-10-19T15:46:05.098Z,40.22
2022-10-19T15:48:41.940Z,38.42
2022-10-19T15:51:27.764Z,40.53
2022-10-19T15:53:57.682Z,37.55
2022-10-19T15:56:28.071Z,36.72
2022-10-19T15:58:58.572Z,33.15
2022-10-19T16:01:28.834Z,31.48
2022-10-19T16:03:56.982Z,44.10
2022-10-19T16:06:33.653Z,37.45
2022-10-19T16:09:02.033Z,33.53
2022-10-19T16:11:31.238Z,35.80
2022-10-19T16:13:59.131Z,37.75
2022-10-19T16:16:32.555Z,37.20
2022-10-19T16:19:01.240Z,37.75
2022-10-19T16:21:33.585Z,35.53
2022-10-19T16:24:01.544Z,33.65
2022-10-19T16:26:29.560Z,37.15
2022-10-19T16:28:57.332Z,42.42
2022-10-19T16:31:25.168Z,32.42
2022-10-19T16:33:53.135Z,30.10
2022-10-19T16:36:21.037Z,37.78
2022-10-19T16:38:49.179Z,33.10
2022-10-19T16:41:17.193Z,31.90
2022-10-19T16:43:45.433Z,36.58
2022-10-19T16:46:13.131Z,34.97
2022-10-19T16:48:40.858Z,35.30
2022-10-19T16:51:10.418Z,39.38
2022-10-19T16:53:38.903Z,35.40
2022-10-19T16:56:09.907Z,34.70
2022-10-19T16:58:38.177Z,32.97
2022-10-19T17:01:09.423Z,36.75
2022-10-19T17:03:37.520Z,37.47
2022-10-19T17:06:07.137Z,38.22
2022-10-19T17:09:02.350Z,33.42
2022-10-19T17:11:27.733Z,33.13
2022-10-19T17:13:58.276Z,33.88
2022-10-19T17:16:27.715Z,37.58
2022-10-19T17:18:57.250Z,36.85
2022-10-19T17:21:28.550Z,37.05
2022-10-19T17:23:59.002Z,34.53
2022-10-19T17:26:30.972Z,37.10
2022-10-19T17:28:59.514Z,41.00
2022-10-19T17:31:28.204Z,33.60
2022-10-19T17:33:56.822Z,34.33
2022-10-19T17:36:28.285Z,33.55
2022-10-19T17:38:58.027Z,35.03
2022-10-19T17:41:27.209Z,38.80
2022-10-19T17:43:55.612Z,37.42
2022-10-19T17:46:27.135Z,39.75
2022-10-19T17:48:56.292Z,39.00
2022-10-19T17:51:30.223Z,33.97
2022-10-19T17:54:07.450Z,41.47
2022-10-19T17:56:37.424Z,38.85
2022-10-19T17:59:08.060Z,39.28
2022-10-19T18:01:37.229Z,36.97
2022-10-19T18:04:05.585Z,39.97
2022-10-19T18:06:36.232Z,42.88
2022-10-19T18:09:07.126Z,36.85
2022-10-19T18:11:38.759Z,40.22
2022-10-19T18:14:08.530Z,36.05
2022-10-19T18:16:41.302Z,42.63
2022-10-19T18:19:09.477Z,36.17
2022-10-19T18:21:40.832Z,38.83
2022-10-19T18:24:15.141Z,37.50
2022-10-19T18:26:43.679Z,41.92
2022-10-19T18:29:15.512Z,37.30
2022-10-19T18:31:43.523Z,41.88
2022-10-19T18:34:15.024Z,36.40
2022-10-19T18:36:43.774Z,37.88
2022-10-19T18:39:14.000Z,41.05
2022-10-19T18:41:42.391Z,35.83
2022-10-19T18:44:13.674Z,44.30
2022-10-19T18:46:42.659Z,41.20
2022-10-19T18:49:13.500Z,39.75
2022-10-19T18:51:42.305Z,43.58
2022-10-19T18:54:11.803Z,38.25
2022-10-19T18:56:39.565Z,44.80
2022-10-19T18:59:07.485Z,48.95
2022-10-19T19:01:35.484Z,39.88
2022-10-19T19:04:09.212Z,42.45
2022-10-19T19:06:38.626Z,49.03
2022-10-19T19:09:09.741Z,46.72
2022-10-19T19:11:40.958Z,44.00
2022-10-19T19:14:15.423Z,44.40
2022-10-19T19:16:44.688Z,44.60
2022-10-19T19:19:15.510Z,43.92
2022-10-19T19:21:44.927Z,46.88
2022-10-19T19:24:18.652Z,43.08
2022-10-19T19:26:50.320Z,48.30
2022-10-19T19:29:20.196Z,41.15
2022-10-19T19:31:50.166Z,48.10
2022-10-19T19:34:22.315Z,41.25
2022-10-19T19:36:50.765Z,41.75
2022-10-19T19:39:25.385Z,42.97
2022-10-19T19:41:54.052Z,46.08
2022-10-19T19:44:22.890Z,44.50
2022-10-19T19:46:52.488Z,46.17
2022-10-19T19:49:25.092Z,44.50
2022-10-19T19:51:54.422Z,41.10
2022-10-19T19:54:22.656Z,43.22
2022-10-19T19:56:57.181Z,46.47
2022-10-19T19:59:24.957Z,37.55
2022-10-19T20:01:52.934Z,40.45
2022-10-19T20:04:20.808Z,36.90
2022-10-19T20:06:48.604Z,34.42
2022-10-19T20:09:16.339Z,41.03
2022-10-19T20:11:44.383Z,39.53
2022-10-19T20:14:12.853Z,36.17
2022-10-19T20:16:40.978Z,37.22
2022-10-19T20:19:14.137Z,37.53
2022-10-19T20:21:42.814Z,38.97
2022-10-19T20:24:11.029Z,37.83
2022-10-19T20:26:39.063Z,39.05
2022-10-19T20:29:06.868Z,36.25
2022-10-19T20:31:39.633Z,35.78
2022-10-19T20:34:10.142Z,37.60
2022-10-19T20:36:38.796Z,33.60
2022-10-19T20:39:07.525Z,36.78
2022-10-19T20:41:36.355Z,38.97
2022-10-19T20:44:05.388Z,32.58
2022-10-19T20:46:33.416Z,35.17
2022-10-19T20:49:02.234Z,32.33
2022-10-19T20:51:33.198Z,34.67
2022-10-19T20:54:04.074Z,28.60
2022-10-19T20:56:34.673Z,31.35
2022-10-19T20:59:08.166Z,33.28
2022-10-19T21:01:38.068Z,33.70
2022-10-19T21:04:08.431Z,34.10
2022-10-19T21:06:40.331Z,33.25
2022-10-19T21:09:09.405Z,27.67
2022-10-19T21:11:39.678Z,31.17
2022-10-19T21:14:22.358Z,28.55
2022-10-19T21:16:56.689Z,22.27
2022-10-19T21:19:26.425Z,23.10
2022-10-19T21:21:58.243Z,23.02
2022-10-19T21:24:28.989Z,26.58
2022-10-19T21:26:57.457Z,27.88
2022-10-19T21:29:25.288Z,22.73
2022-10-19T21:31:54.081Z,26.45
2022-10-19T21:34:24.967Z,24.33
2022-10-19T21:36:53.547Z,26.55
2022-10-19T21:39:21.981Z,25.27
2022-10-19T21:41:50.399Z,26.77
2022-10-19T21:44:18.933Z,26.25
2022-10-19T21:46:50.513Z,22.92
2022-10-19T21:49:18.800Z,23.92
2022-10-19T21:51:49.372Z,23.30
2022-10-19T21:54:19.930Z,22.30
2022-10-19T21:56:48.568Z,24.70
2022-10-19T21:59:17.229Z,25.55
2022-10-19T22:01:45.118Z,21.52
2022-10-19T22:04:16.922Z,24.52
2022-10-19T22:06:45.023Z,25.75
2022-10-19T22:09:16.505Z,24.65
2022-10-19T22:11:44.637Z,21.55
2022-10-19T22:14:14.597Z,23.40
2022-10-19T22:16:42.813Z,25.42
2022-10-19T22:19:11.399Z,23.48
2022-10-19T22:21:39.765Z,25.95
2022-10-19T22:24:11.113Z,23.25
2022-10-19T22:26:42.398Z,25.15
2022-10-19T22:29:10.548Z,23.95
2022-10-19T22:31:38.849Z,25.08
2022-10-19T22:34:09.988Z,23.40
2022-10-19T22:36:38.129Z,22.05
2022-10-19T22:39:06.001Z,26.75
2022-10-19T22:42:29.711Z,21.35
2022-10-19T22:46:12.166Z,26.52
2022-10-19T22:49:54.559Z,23.00
2022-10-19T22:52:59.363Z,23.13
2022-10-19T22:55:27.218Z,19.77
2022-10-19T22:57:54.967Z,24.50
2022-10-19T23:00:23.000Z,25.63
2022-10-19T23:02:50.794Z,25.13
2022-10-19T23:05:18.744Z,26.40
2022-10-19T23:07:46.569Z,27.13
2022-10-19T23:10:14.369Z,24.70
2022-10-19T23:12:42.282Z,30.98
2022-10-19T23:15:10.719Z,26.55
2022-10-19T23:17:38.688Z,26.23
2022-10-19T23:20:07.116Z,23.98
2022-10-19T23:22:34.925Z,30.98
2022-10-19T23:25:02.682Z,24.17
2022-10-19T23:27:31.014Z,22.88
2022-10-19T23:29:59.384Z,25.42
2022-10-19T23:32:27.130Z,25.27
2022-10-19T23:34:54.952Z,25.55
2022-10-19T23:37:22.766Z,29.85
2022-10-19T23:39:50.516Z,26.40
2022-10-19T23:42:18.315Z,28.95
2022-10-19T23:44:46.111Z,28.10
2022-10-19T23:47:13.839Z,24.45
2022-10-19T23:49:41.587Z,27.98
2022-10-19T23:52:09.424Z,31.60
2022-10-19T23:54:37.182Z,22.77
2022-10-19T23:57:04.975Z,29.40
2022-10-19T23:59:33.108Z,24.33
